Time;durP1;ratioP1;P1;durP2;ratioP2;P2;SDS_P1;SDS_P2;PMS_P1;PMS_P2;Temp;Humidity;BMP_temperature;BMP_pressure;BME280_temperature;BME280_humidity;BME280_pressure;Samples;Min_cycle;Max_cycle;Signal;HPM_P1;HPM_P2
2021/03/01 00:02:14;;;;;;;;;;;;;;;10.57;35.89;103085.91;6154663;23;20344;-74
2021/03/01 00:04:41;;;;;;;;;;;;;;;10.56;35.89;103087.66;6155258;23;19929;-74
2021/03/01 00:07:10;;;;;;;;;;;;;;;10.57;35.37;103092.09;6157238;23;19925;-74
2021/03/01 00:09:37;;;;;;;;;;;;;;;10.56;35.41;103079.72;6156885;23;19972;-74
2021/03/01 00:12:05;;;;;;;;;;;;;;;10.56;35.17;103074.44;6158548;23;19925;-74
2021/03/01 00:14:32;;;;;;;;;;;;;;;10.56;34.68;103074.44;6154677;23;20373;-73
2021/03/01 00:16:59;;;;;;;;;;;;;;;10.55;34.69;103072.66;6156284;23;20394;-74
2021/03/01 00:19:29;;;;;;;;;;;;;;;10.55;34.29;103072.66;6160805;23;19960;-74
2021/03/01 00:21:57;;;;;;;;;;;;;;;10.53;33.99;103071.78;6156828;23;20417;-74
2021/03/01 00:24:24;;;;;;;;;;;;;;;10.53;33.76;103068.22;6132471;23;19931;-74
2021/03/01 00:26:51;;;;;;;;;;;;;;;10.52;33.96;103069.06;6157486;23;19921;-74
2021/03/01 00:29:18;;;;;;;;;;;;;;;10.50;33.83;103070.84;6152119;23;20394;-74
2021/03/01 00:31:58;;;;;;;;;;;;;;;10.47;33.92;103061.13;6158781;23;20441;-74
2021/03/01 00:34:27;;;;;;;;;;;;;;;10.44;33.53;103066.34;6130987;23;19925;-74
2021/03/01 00:36:56;;;;;;;;;;;;;;;10.43;33.25;103060.19;6155809;23;19948;-74
2021/03/01 00:39:25;;;;;;;;;;;;;;;10.41;33.83;103058.41;6159216;23;19948;-74
2021/03/01 00:41:53;;;;;;;;;;;;;;;10.41;33.66;103056.66;6155488;23;19924;-74
2021/03/01 00:44:20;;;;;;;;;;;;;;;10.40;33.31;103049.59;6127150;23;19931;-74
2021/03/01 00:46:48;;;;;;;;;;;;;;;10.37;33.71;103052.19;6132572;23;19957;-74
2021/03/01 00:49:15;;;;;;;;;;;;;;;10.33;33.32;103060.03;6158113;23;19925;-74
2021/03/01 00:51:43;;;;;;;;;;;;;;;10.33;33.45;103062.69;6159727;23;19921;-74
2021/03/01 00:54:15;;;;;;;;;;;;;;;10.30;33.36;103066.19;6157676;23;19940;-74
2021/03/01 00:56:52;;;;;;;;;;;;;;;10.20;34.61;103064.31;6128265;23;19979;-74
2021/03/01 00:59:20;;;;;;;;;;;;;;;10.14;35.51;103055.44;6158205;23;20623;-74
2021/03/01 01:02:08;;;;;;;;;;;;;;;10.09;35.70;103054.50;6157326;23;19925;-74
2021/03/01 01:04:50;;;;;;;;;;;;;;;10.10;35.75;103053.63;6131691;23;19929;-74
2021/03/01 01:07:20;;;;;;;;;;;;;;;10.10;35.10;103050.97;6154786;23;19928;-74
2021/03/01 01:09:48;;;;;;;;;;;;;;;10.09;34.73;103051.84;6154391;23;20438;-74
2021/03/01 01:12:17;;;;;;;;;;;;;;;10.11;34.59;103052.75;6152767;23;19932;-73
2021/03/01 01:14:44;;;;;;;;;;;;;;;10.11;34.39;103052.75;6156273;23;20310;-74
2021/03/01 01:17:11;;;;;;;;;;;;;;;10.08;34.06;103051.84;6155368;23;20363;-74
2021/03/01 01:19:39;;;;;;;;;;;;;;;10.09;33.89;103053.63;6158128;23;19924;-74
2021/03/01 01:22:06;;;;;;;;;;;;;;;10.07;33.86;103045.69;6157459;23;19952;-74
2021/03/01 01:24:34;;;;;;;;;;;;;;;10.06;33.99;103050.91;6153330;23;19998;-73
2021/03/01 01:27:05;;;;;;;;;;;;;;;10.05;33.87;103055.34;6155115;23;19924;-73
2021/03/01 01:29:32;;;;;;;;;;;;;;;10.04;33.65;103061.47;6158030;23;19924;-74
2021/03/01 01:31:59;;;;;;;;;;;;;;;10.03;33.29;103059.69;6158724;23;19929;-74
2021/03/01 01:34:26;;;;;;;;;;;;;;;10.03;33.44;103065.00;6158196;23;20368;-73
2021/03/01 01:36:53;;;;;;;;;;;;;;;10.02;33.56;103068.53;6154511;23;19924;-74
2021/03/01 01:39:20;;;;;;;;;;;;;;;10.02;33.50;103064.97;6153564;23;19987;-74
2021/03/01 01:41:48;;;;;;;;;;;;;;;10.01;33.53;103068.47;6153640;23;19985;-74
2021/03/01 01:44:15;;;;;;;;;;;;;;;10.03;33.12;103069.41;6156487;23;19920;-74
2021/03/01 01:46:42;;;;;;;;;;;;;;;10.01;33.49;103072.03;6159742;23;19920;-74
2021/03/01 01:49:10;;;;;;;;;;;;;;;10.01;33.24;103076.41;6160568;23;19960;-73
2021/03/01 01:51:42;;;;;;;;;;;;;;;10.01;33.25;103073.78;6158839;23;19973;-74
2021/03/01 01:54:09;;;;;;;;;;;;;;;9.96;33.40;103071.97;6157862;23;20781;-74
2021/03/01 01:56:36;;;;;;;;;;;;;;;9.88;35.06;103075.41;6155500;23;19925;-74
2021/03/01 01:59:04;;;;;;;;;;;;;;;9.83;35.56;103077.97;6159042;23;19925;-73
2021/03/01 02:01:32;;;;;;;;;;;;;;;9.79;35.80;103070.88;6133564;23;19931;-73
2021/03/01 02:04:02;;;;;;;;;;;;;;;9.83;35.90;103074.47;6160127;23;20329;-74
2021/03/01 02:06:37;;;;;;;;;;;;;;;9.86;35.17;103072.75;6156369;23;19924;-73
2021/03/01 02:09:25;;;;;;;;;;;;;;;9.88;34.79;103076.28;6151374;23;19959;-74
2021/03/01 02:12:05;;;;;;;;;;;;;;;9.87;35.12;103071.84;6137045;23;19921;-74
2021/03/01 02:14:37;;;;;;;;;;;;;;;9.89;34.37;103063.94;6157308;23;19921;-74
2021/03/01 02:17:04;;;;;;;;;;;;;;;9.86;33.94;103063.91;6156579;23;19920;-74
2021/03/01 02:19:33;;;;;;;;;;;;;;;9.88;34.36;103059.53;6157817;23;19925;-74
2021/03/01 02:22:01;;;;;;;;;;;;;;;9.88;34.00;103055.13;6153280;23;19999;-74
2021/03/01 02:24:32;;;;;;;;;;;;;;;9.90;34.02;103053.41;6150709;23;19963;-74
2021/03/01 02:26:59;;;;;;;;;;;;;;;9.86;34.17;103051.59;6154939;23;19930;-74
2021/03/01 02:29:27;;;;;;;;;;;;;;;9.88;33.35;103048.97;6155220;23;19929;-74
2021/03/01 02:31:57;;;;;;;;;;;;;;;9.86;34.00;103048.94;6157166;23;19959;-74
2021/03/01 02:34:27;;;;;;;;;;;;;;;9.87;33.36;103049.81;6131514;23;19947;-74
2021/03/01 02:36:57;;;;;;;;;;;;;;;9.86;33.82;103051.59;6153331;23;20346;-74
2021/03/01 02:39:26;;;;;;;;;;;;;;;9.85;33.53;103047.16;6156587;23;19924;-74
2021/03/01 02:41:54;;;;;;;;;;;;;;;9.84;33.53;103050.69;6156802;23;19932;-74
2021/03/01 02:44:22;;;;;;;;;;;;;;;9.83;33.74;103037.44;6157292;23;19924;-74
2021/03/01 02:46:53;;;;;;;;;;;;;;;9.83;33.34;103034.81;6160454;23;19924;-74
2021/03/01 02:49:21;;;;;;;;;;;;;;;9.83;33.21;103033.03;6158570;23;19924;-74
2021/03/01 02:51:52;;;;;;;;;;;;;;;9.84;33.32;103026.00;6155524;23;20426;-74
2021/03/01 02:54:27;;;;;;;;;;;;;;;9.76;33.22;103026.78;6157178;23;20008;-74
2021/03/01 02:56:58;;;;;;;;;;;;;;;9.64;34.87;103026.66;6156747;23;19931;-74
2021/03/01 02:59:26;;;;;;;;;;;;;;;9.60;35.68;103033.63;6157304;23;19925;-74
2021/03/01 03:01:54;;;;;;;;;;;;;;;9.56;35.71;103033.56;6134257;23;20000;-74
2021/03/01 03:04:22;;;;;;;;;;;;;;;9.58;36.30;103024.78;6156245;23;19924;-74
2021/03/01 03:06:50;;;;;;;;;;;;;;;9.59;35.84;103029.22;6155730;23;20259;-74
2021/03/01 03:09:19;;;;;;;;;;;;;;;9.62;35.41;103026.59;6153608;23;19999;-74
2021/03/01 03:11:47;;;;;;;;;;;;;;;9.62;35.22;103023.94;6157724;23;19924;-74
2021/03/01 03:14:16;;;;;;;;;;;;;;;9.62;35.26;103023.06;6157419;23;19948;-74
2021/03/01 03:16:46;;;;;;;;;;;;;;;9.63;34.56;103024.88;6132901;23;19927;-74
2021/03/01 03:19:13;;;;;;;;;;;;;;;9.62;34.58;103029.25;6157332;23;19954;-74
2021/03/01 03:21:40;;;;;;;;;;;;;;;9.66;33.95;103027.53;6154969;23;19925;-74
2021/03/01 03:24:08;;;;;;;;;;;;;;;9.69;34.17;103032.88;6156145;23;19955;-74
2021/03/01 03:26:35;;;;;;;;;;;;;;;9.69;33.66;103024.03;6159842;23;19924;-74
2021/03/01 03:29:03;;;;;;;;;;;;;;;9.71;33.31;103033.75;6156722;23;19948;-74
2021/03/01 03:31:31;;;;;;;;;;;;;;;9.68;33.58;103035.47;6158735;23;19925;-74
2021/03/01 03:33:58;;;;;;;;;;;;;;;9.68;33.82;103035.47;6157486;23;20028;-74
2021/03/01 03:36:29;;;;;;;;;;;;;;;9.66;33.38;103043.38;6155486;23;19949;-74
2021/03/01 03:38:57;;;;;;;;;;;;;;;9.67;33.57;103044.28;6157368;23;19973;-74
2021/03/01 03:41:26;;;;;;;;;;;;;;;9.67;33.52;103039.88;6157947;23;19928;-74
2021/03/01 03:43:55;;;;;;;;;;;;;;;9.66;33.22;103040.75;6156851;23;19925;-74
2021/03/01 03:46:25;;;;;;;;;;;;;;;9.64;33.56;103042.50;6159598;23;19924;-74
2021/03/01 03:48:53;;;;;;;;;;;;;;;9.67;33.51;103045.16;6156145;23;20125;-74
2021/03/01 03:51:22;;;;;;;;;;;;;;;9.68;33.55;103041.66;6153229;23;19930;-74
2021/03/01 03:53:50;;;;;;;;;;;;;;;9.66;33.21;103047.81;6158823;23;19924;-74
2021/03/01 03:56:20;;;;;;;;;;;;;;;9.54;34.69;103051.16;6158587;23;19935;-74
2021/03/01 03:58:50;;;;;;;;;;;;;;;9.46;35.46;103049.28;6158387;23;19924;-74
2021/03/01 04:01:23;;;;;;;;;;;;;;;9.42;35.80;103050.13;6158610;23;20022;-74
2021/03/01 04:03:52;;;;;;;;;;;;;;;9.44;36.08;103050.13;6155448;23;19924;-73
2021/03/01 04:06:21;;;;;;;;;;;;;;;9.45;35.87;103051.91;6154957;23;19925;-74
2021/03/01 04:08:52;;;;;;;;;;;;;;;9.51;35.23;103061.66;6131194;23;19925;-75
2021/03/01 04:11:21;;;;;;;;;;;;;;;9.56;35.17;103052.06;6157068;23;19929;-74
2021/03/01 04:13:49;;;;;;;;;;;;;;;9.56;34.87;103058.25;6157312;23;19920;-74
2021/03/01 04:16:17;;;;;;;;;;;;;;;9.58;35.11;103056.50;6131715;23;19931;-74
2021/03/01 04:18:48;;;;;;;;;;;;;;;9.62;34.50;103060.09;6152386;23;19931;-74
2021/03/01 04:21:17;;;;;;;;;;;;;;;9.62;34.43;103052.16;6156979;23;19925;-74
2021/03/01 04:23:53;;;;;;;;;;;;;;;9.63;34.36;103051.28;6157840;23;19932;-74
2021/03/01 04:26:21;;;;;;;;;;;;;;;9.62;34.53;103042.44;6158916;23;19929;-74
2021/03/01 04:28:49;;;;;;;;;;;;;;;9.61;33.82;103048.63;6156308;23;19939;-74
2021/03/01 04:31:16;;;;;;;;;;;;;;;9.66;34.29;103042.50;6155495;23;19999;-74
2021/03/01 04:33:44;;;;;;;;;;;;;;;9.63;34.04;103048.66;6153559;23;19925;-74
2021/03/01 04:36:11;;;;;;;;;;;;;;;9.61;34.30;103047.72;6154929;23;19924;-74
2021/03/01 04:38:38;;;;;;;;;;;;;;;9.61;34.23;103047.72;6157157;23;20342;-74
2021/03/01 04:41:06;;;;;;;;;;;;;;;9.61;33.84;103042.44;6156841;23;19925;-74
2021/03/01 04:43:35;;;;;;;;;;;;;;;9.67;33.48;103039.88;6129956;23;20203;-74
2021/03/01 04:46:02;;;;;;;;;;;;;;;9.63;33.45;103041.59;6154222;23;20433;-74
2021/03/01 04:48:30;;;;;;;;;;;;;;;9.62;33.24;103041.59;6153646;23;19928;-74
2021/03/01 04:50:57;;;;;;;;;;;;;;;9.64;33.34;103043.38;6157047;23;19972;-74
2021/03/01 04:53:25;;;;;;;;;;;;;;;9.61;33.27;103035.41;6161413;23;19936;-74
2021/03/01 04:55:53;;;;;;;;;;;;;;;9.49;34.56;103039.66;6128975;23;19924;-73
2021/03/01 04:58:22;;;;;;;;;;;;;;;9.38;35.41;103034.22;6126530;23;19929;-73
2021/03/01 05:00:49;;;;;;;;;;;;;;;9.34;35.92;103037.66;6126425;23;20282;-75
2021/03/01 05:03:16;;;;;;;;;;;;;;;9.35;36.10;103040.34;6127229;23;19925;-74
2021/03/01 05:05:44;;;;;;;;;;;;;;;9.39;35.48;103044.81;6101310;23;20583;-73
2021/03/01 05:08:15;;;;;;;;;;;;;;;9.43;35.56;103049.25;6126329;23;19925;-73
2021/03/01 05:10:42;;;;;;;;;;;;;;;9.48;35.36;103049.31;6123857;23;19929;-73
2021/03/01 05:13:09;;;;;;;;;;;;;;;9.51;34.83;103057.28;6125048;23;19968;-73
2021/03/01 05:15:37;;;;;;;;;;;;;;;9.50;34.18;103047.59;6126066;23;19925;-72
2021/03/01 05:18:05;;;;;;;;;;;;;;;9.50;34.26;103054.63;6129489;23;19931;-73
2021/03/01 05:20:32;;;;;;;;;;;;;;;9.52;34.14;103061.72;6130275;23;20517;-73
2021/03/01 05:22:59;;;;;;;;;;;;;;;9.53;33.97;103054.66;6100912;23;20632;-73
2021/03/01 05:25:27;;;;;;;;;;;;;;;9.52;34.19;103047.59;6124742;23;19937;-73
2021/03/01 05:27:54;;;;;;;;;;;;;;;9.56;33.90;103054.69;6122746;23;19925;-73
2021/03/01 05:30:22;;;;;;;;;;;;;;;9.53;33.93;103044.97;6128007;23;19925;-72
2021/03/01 05:32:49;;;;;;;;;;;;;;;9.54;34.00;103046.75;6129546;23;19924;-73
2021/03/01 05:35:17;;;;;;;;;;;;;;;9.54;33.91;103051.16;6129041;23;19925;-73
2021/03/01 05:37:44;;;;;;;;;;;;;;;9.52;33.47;103051.16;6128998;23;19925;-73
2021/03/01 05:40:12;;;;;;;;;;;;;;;9.54;33.97;103056.44;6095984;23;19949;-73
2021/03/01 05:42:39;;;;;;;;;;;;;;;9.51;33.74;103056.38;6099195;23;19932;-73
2021/03/01 05:45:07;;;;;;;;;;;;;;;9.52;33.57;103051.16;6126432;23;19960;-73
2021/03/01 05:47:35;;;;;;;;;;;;;;;9.52;33.97;103059.09;6127274;23;19932;-73
2021/03/01 05:50:04;;;;;;;;;;;;;;;9.51;33.67;103052.00;6127582;23;19924;-73
2021/03/01 05:52:32;;;;;;;;;;;;;;;9.54;33.96;103057.31;6098375;23;19925;-72
2021/03/01 05:55:00;;;;;;;;;;;;;;;9.44;34.60;103051.03;6138174;23;19979;-72
2021/03/01 05:57:27;;;;;;;;;;;;;;;9.30;35.42;103056.13;6156624;23;19947;-73
2021/03/01 05:59:54;;;;;;;;;;;;;;;9.25;36.30;103052.50;6154626;23;19952;-72
2021/03/01 06:02:21;;;;;;;;;;;;;;;9.22;36.63;103057.75;6157065;23;20472;-72
2021/03/01 06:04:48;;;;;;;;;;;;;;;9.29;36.31;103056.09;6155061;23;20015;-72
2021/03/01 06:07:17;;;;;;;;;;;;;;;9.35;36.52;103053.56;6127405;23;20008;-73
2021/03/01 06:09:43;;;;;;;;;;;;;;;9.39;35.77;103054.47;6154152;23;19924;-73
2021/03/01 06:12:11;;;;;;;;;;;;;;;9.40;35.45;103050.97;6157160;23;19928;-72
2021/03/01 06:14:38;;;;;;;;;;;;;;;9.43;34.61;103058.94;6157962;23;19924;-73
2021/03/01 06:17:08;;;;;;;;;;;;;;;9.46;35.14;103051.06;6158082;23;20446;-73
2021/03/01 06:19:46;;;;;;;;;;;;;;;9.49;34.74;103056.38;6157210;23;19932;-73
2021/03/01 06:22:13;;;;;;;;;;;;;;;9.50;34.33;103052.00;6153514;23;19968;-72
2021/03/01 06:24:41;;;;;;;;;;;;;;;9.52;34.52;103058.16;6153111;23;19924;-74
2021/03/01 06:27:11;;;;;;;;;;;;;;;9.56;33.97;103057.34;6156997;23;20345;-71
2021/03/01 06:29:57;;;;;;;;;;;;;;;9.54;34.20;103054.69;6155294;23;20647;-74
2021/03/01 06:32:24;;;;;;;;;;;;;;;9.54;34.02;103062.63;6156262;23;20629;-72
2021/03/01 06:34:51;;;;;;;;;;;;;;;9.60;33.84;103061.78;6155593;23;20023;-73
2021/03/01 06:37:18;;;;;;;;;;;;;;;9.63;33.67;103065.38;6152593;23;19965;-73
2021/03/01 06:39:47;;;;;;;;;;;;;;;9.65;33.65;103068.03;6156270;23;19931;-75
2021/03/01 06:42:24;;;;;;;;;;;;;;;9.66;33.12;103066.31;6131841;23;19925;-73
2021/03/01 06:45:11;;;;;;;;;;;;;;;9.69;33.83;103061.03;6158693;23;19932;-75
2021/03/01 06:47:46;;;;;;;;;;;;;;;9.69;33.53;103063.69;6157865;23;19929;-75
2021/03/01 06:50:23;;;;;;;;;;;;;;;9.70;33.54;103063.69;6153838;23;19932;-74
2021/03/01 06:52:50;;;;;;;;;;;;;;;9.74;33.59;103065.50;6127602;23;19924;-73
2021/03/01 06:55:19;;;;;;;;;;;;;;;9.67;33.76;103068.97;6157684;23;19931;-73
2021/03/01 06:57:46;;;;;;;;;;;;;;;9.54;35.57;103064.38;6157012;23;19944;-73
2021/03/01 07:00:13;;;;;;;;;;;;;;;9.51;35.75;103061.66;6159439;23;19931;-73
2021/03/01 07:02:40;;;;;;;;;;;;;;;9.54;36.35;103067.03;6160536;23;19928;-73
2021/03/01 07:05:10;;;;;;;;;;;;;;;9.65;36.18;103070.69;6154767;23;19925;-73
2021/03/01 07:07:41;;;;;;;;;;;;;;;9.76;35.37;103073.50;6158163;23;19971;-73
2021/03/01 07:10:09;;;;;;;;;;;;;;;9.83;35.28;103064.75;6158263;23;19936;-74
2021/03/01 07:12:41;;;;;;;;;;;;;;;9.87;34.44;103070.97;6158935;23;19924;-73
2021/03/01 07:15:09;;;;;;;;;;;;;;;9.92;34.44;103072.81;6134732;23;19928;-73
2021/03/01 07:17:37;;;;;;;;;;;;;;;9.95;33.96;103079.88;6156871;23;19951;-73
2021/03/01 07:20:07;;;;;;;;;;;;;;;10.03;33.90;103080.84;6153429;23;19931;-73
2021/03/01 07:22:37;;;;;;;;;;;;;;;10.03;33.43;103075.56;6159316;23;19947;-73
2021/03/01 07:25:06;;;;;;;;;;;;;;;10.08;33.17;103071.22;6157323;23;20358;-73
2021/03/01 07:27:37;;;;;;;;;;;;;;;10.12;33.07;103075.72;6159063;23;19920;-73
2021/03/01 07:30:06;;;;;;;;;;;;;;;10.24;32.93;103072.31;6157456;23;19956;-73
2021/03/01 07:32:33;;;;;;;;;;;;;;;10.28;33.08;103082.06;6154969;23;19945;-73
2021/03/01 07:35:02;;;;;;;;;;;;;;;10.27;32.61;103093.50;6153379;23;21480;-73
2021/03/01 07:37:29;;;;;;;;;;;;;;;10.29;32.88;103090.88;6159241;23;19924;-74
2021/03/01 07:39:57;;;;;;;;;;;;;;;10.42;32.16;103084.88;6156068;23;19941;-73
2021/03/01 07:42:24;;;;;;;;;;;;;;;10.53;32.17;103092.94;6126950;23;19925;-73
2021/03/01 07:44:53;;;;;;;;;;;;;;;10.46;32.13;103096.38;6151959;23;19924;-74
2021/03/01 07:47:25;;;;;;;;;;;;;;;10.39;32.08;103094.56;6153532;23;19932;-73
2021/03/01 07:49:53;;;;;;;;;;;;;;;10.54;32.04;103083.22;6157300;23;21106;-73
2021/03/01 07:52:36;;;;;;;;;;;;;;;10.62;32.05;103087.75;6154774;23;19924;-74
2021/03/01 07:55:06;;;;;;;;;;;;;;;10.63;32.63;103084.19;6156654;23;19924;-72
2021/03/01 07:57:34;;;;;;;;;;;;;;;10.62;33.77;103087.75;6158078;23;19927;-73
2021/03/01 08:00:16;;;;;;;;;;;;;;;10.65;33.87;103091.28;6154765;23;20004;-73
2021/03/01 08:02:44;;;;;;;;;;;;;;;10.65;34.43;103091.28;6152538;23;19934;-72
2021/03/01 08:05:20;;;;;;;;;;;;;;;10.73;34.35;103090.47;6158144;23;19933;-73
2021/03/01 08:07:47;;;;;;;;;;;;;;;10.80;33.66;103092.28;6157577;23;20393;-74
2021/03/01 08:10:20;;;;;;;;;;;;;;;10.97;33.47;103094.22;6155703;23;19925;-73
2021/03/01 08:13:01;;;;;;;;;;;;;;;11.02;33.14;103095.16;6157436;23;19943;-73
2021/03/01 08:15:45;;;;;;;;;;;;;;;11.04;32.26;103098.66;6155768;23;20072;-73
2021/03/01 08:18:14;;;;;;;;;;;;;;;11.05;32.64;103103.09;6155536;23;19921;-73
2021/03/01 08:20:42;;;;;;;;;;;;;;;11.07;32.17;103105.75;6157640;23;19928;-73
2021/03/01 08:23:17;;;;;;;;;;;;;;;11.15;32.04;103119.06;6156294;23;19920;-73
2021/03/01 08:25:48;;;;;;;;;;;;;;;11.15;32.09;103109.38;6156003;23;19928;-73
2021/03/01 08:28:32;;;;;;;;;;;;;;;11.15;32.11;103113.78;6153249;23;19920;-73
2021/03/01 08:31:13;;;;;;;;;;;;;;;11.11;31.90;103121.72;6153489;23;19920;-74
2021/03/01 08:33:41;;;;;;;;;;;;;;;11.08;32.17;103126.09;6155871;23;20165;-74
2021/03/01 08:36:28;;;;;;;;;;;;;;;11.09;31.76;103127.88;6157425;23;20233;-74
2021/03/01 08:38:55;;;;;;;;;;;;;;;11.15;31.76;103135.88;6156166;23;20321;-74
2021/03/01 08:41:40;;;;;;;;;;;;;;;11.15;31.84;103134.97;6155069;23;19948;-74
2021/03/01 08:44:17;;;;;;;;;;;;;;;11.22;31.76;103139.47;6152500;23;19925;-74
2021/03/01 08:46:44;;;;;;;;;;;;;;;11.29;31.74;103135.97;6157435;23;19955;-74
2021/03/01 08:49:21;;;;;;;;;;;;;;;11.40;31.28;103134.28;6160759;23;19924;-74
2021/03/01 08:51:54;;;;;;;;;;;;;;;11.39;31.21;103136.94;6156910;23;19948;-74
2021/03/01 08:54:25;;;;;;;;;;;;;;;11.40;31.67;103133.38;6157176;23;19937;-74
2021/03/01 08:57:02;;;;;;;;;;;;;;;11.20;33.62;103131.50;6155646;23;19982;-74
2021/03/01 09:02:20;;;;;;;;;;;;;;;11.20;34.26;103142.09;6162932;23;20438;-75
2021/03/01 09:05:04;;;;;;;;;;;;;;;11.19;34.64;103137.66;6166561;23;20027;-76
2021/03/01 09:07:40;;;;;;;;;;;;;;;11.24;33.87;103146.53;6169175;23;20354;-75
2021/03/01 09:10:08;;;;;;;;;;;;;;;11.45;33.05;103132.56;6163737;23;19924;-76
2021/03/01 09:12:35;;;;;;;;;;;;;;;11.43;32.88;103139.59;6162117;23;19956;-75
2021/03/01 09:15:02;;;;;;;;;;;;;;;11.50;32.68;103140.53;6167001;23;20392;-75
2021/03/01 09:17:30;;;;;;;;;;;;;;;11.58;32.31;103146.78;6169286;23;20300;-75
2021/03/01 09:19:57;;;;;;;;;;;;;;;11.55;32.24;103151.19;6166230;23;19939;-75
2021/03/01 09:22:25;;;;;;;;;;;;;;;11.56;32.14;103145.00;6169619;23;20179;-76
2021/03/01 09:24:51;;;;;;;;;;;;;;;11.60;32.23;103155.63;6164783;23;19973;-76
2021/03/01 09:27:30;;;;;;;;;;;;;;;11.66;31.91;103151.25;6161396;23;19959;-75
2021/03/01 09:30:01;;;;;;;;;;;;;;;11.64;31.99;103161.84;6165358;23;19943;-76
2021/03/01 09:32:28;;;;;;;;;;;;;;;11.68;32.03;103155.69;6163478;23;20273;-76
2021/03/01 09:34:56;;;;;;;;;;;;;;;11.78;31.62;103146.91;6166653;23;19925;-75
2021/03/01 09:37:25;;;;;;;;;;;;;;;11.78;31.56;103154.00;6164941;23;19929;-76
2021/03/01 09:39:53;;;;;;;;;;;;;;;11.76;31.71;103148.66;6136116;23;19924;-76
2021/03/01 09:42:19;;;;;;;;;;;;;;;11.74;31.51;103150.44;6168100;23;19925;-76
2021/03/01 09:44:46;;;;;;;;;;;;;;;11.79;31.49;103150.44;6170537;23;20044;-75
2021/03/01 09:47:13;;;;;;;;;;;;;;;11.82;31.55;103149.56;6170404;23;20055;-75
2021/03/01 09:49:42;;;;;;;;;;;;;;;11.78;31.66;103152.22;6168197;23;19960;-76
2021/03/01 09:52:11;;;;;;;;;;;;;;;11.82;31.53;103155.78;6161369;23;19970;-76
2021/03/01 09:54:39;;;;;;;;;;;;;;;11.89;32.12;103146.97;6163400;23;19927;-76
2021/03/01 09:57:08;;;;;;;;;;;;;;;11.83;33.13;103151.34;6166324;23;19928;-76
2021/03/01 09:59:36;;;;;;;;;;;;;;;11.73;33.94;103150.41;6170559;23;19932;-76
2021/03/01 10:02:10;;;;;;;;;;;;;;;11.80;33.95;103152.22;6168894;23;19924;-76
2021/03/01 10:04:42;;;;;;;;;;;;;;;11.78;34.07;103151.34;6140812;23;19926;-76
2021/03/01 10:07:20;;;;;;;;;;;;;;;11.93;33.62;103155.84;6165289;23;19955;-75
2021/03/01 10:09:47;;;;;;;;;;;;;;;11.93;33.36;103156.69;6161092;23;19948;-76
2021/03/01 10:12:15;;;;;;;;;;;;;;;11.95;32.73;103152.34;6169352;23;20036;-76
2021/03/01 10:14:42;;;;;;;;;;;;;;;12.01;32.50;103156.78;6167614;23;19939;-75
2021/03/01 10:17:16;;;;;;;;;;;;;;;12.02;32.52;103163.88;6169121;23;19952;-76
2021/03/01 10:19:43;;;;;;;;;;;;;;;12.15;32.22;103166.56;6168236;23;19921;-75
2021/03/01 10:22:10;;;;;;;;;;;;;;;12.12;32.06;103164.78;6164620;23;19923;-75
2021/03/01 10:24:43;;;;;;;;;;;;;;;12.18;31.77;103172.78;6168409;23;20376;-76
2021/03/01 10:27:10;;;;;;;;;;;;;;;12.19;31.88;103171.91;6171298;23;19999;-75
2021/03/01 10:29:39;;;;;;;;;;;;;;;12.28;31.53;103163.97;6169226;23;20369;-76
2021/03/01 10:32:17;;;;;;;;;;;;;;;12.27;31.68;103156.03;6168752;23;19925;-75
2021/03/01 10:34:44;;;;;;;;;;;;;;;12.40;31.31;103159.63;6164983;23;19921;-75
2021/03/01 10:37:11;;;;;;;;;;;;;;;12.39;31.30;103164.00;6165809;23;19959;-75
2021/03/01 10:39:39;;;;;;;;;;;;;;;12.40;31.46;103162.28;6169850;23;20693;-76
2021/03/01 10:42:11;;;;;;;;;;;;;;;12.51;31.12;103165.81;6167964;23;20267;-76
2021/03/01 10:44:41;;;;;;;;;;;;;;;12.55;31.06;103164.06;6168652;23;20408;-76
2021/03/01 10:47:12;;;;;;;;;;;;;;;12.55;31.02;103164.06;6167808;23;19928;-75
2021/03/01 10:49:39;;;;;;;;;;;;;;;12.62;31.06;103164.09;6164421;23;20408;-76
2021/03/01 10:52:10;;;;;;;;;;;;;;;12.61;30.93;103159.66;6159681;23;20026;-76
2021/03/01 10:54:37;;;;;;;;;;;;;;;12.61;31.74;103159.66;6168947;23;19924;-76
2021/03/01 10:57:07;;;;;;;;;;;;;;;12.44;32.94;103159.63;6167505;23;19959;-76
2021/03/01 10:59:37;;;;;;;;;;;;;;;12.41;33.42;103164.00;6168771;23;19924;-76
2021/03/01 11:02:17;;;;;;;;;;;;;;;12.39;33.93;103164.00;6168450;23;19986;-76
2021/03/01 11:04:45;;;;;;;;;;;;;;;12.37;34.00;103164.88;6160851;23;20275;-75
2021/03/01 11:07:14;;;;;;;;;;;;;;;12.42;33.79;103157.84;6168140;23;19939;-75
2021/03/01 11:09:41;;;;;;;;;;;;;;;12.50;32.95;103158.75;6168937;23;20342;-76
2021/03/01 11:12:08;;;;;;;;;;;;;;;12.53;32.65;103156.09;6164250;23;19955;-75
2021/03/01 11:14:36;;;;;;;;;;;;;;;12.55;32.53;103156.97;6167604;23;19939;-75
2021/03/01 11:17:11;;;;;;;;;;;;;;;12.62;32.01;103153.47;6135396;23;19924;-76
2021/03/01 11:19:39;;;;;;;;;;;;;;;12.61;32.15;103153.47;6161726;23;20008;-75
2021/03/01 11:22:06;;;;;;;;;;;;;;;12.69;31.85;103151.72;6169300;23;19920;-76
2021/03/01 11:24:33;;;;;;;;;;;;;;;12.74;31.81;103142.00;6161098;23;19935;-76
2021/03/01 11:26:59;;;;;;;;;;;;;;;12.77;31.63;103144.63;6166165;23;19986;-76
2021/03/01 11:29:26;;;;;;;;;;;;;;;12.74;31.67;103139.34;6167024;23;19962;-76
2021/03/01 11:31:53;;;;;;;;;;;;;;;12.75;31.65;103142.88;6157943;23;20449;-76
2021/03/01 11:34:21;;;;;;;;;;;;;;;12.84;31.48;103149.97;6164097;23;19944;-76
2021/03/01 11:36:49;;;;;;;;;;;;;;;12.80;31.49;103138.44;6165853;23;20439;-76
2021/03/01 11:39:16;;;;;;;;;;;;;;;12.80;31.40;103143.75;6166736;23;20000;-75
2021/03/01 11:41:42;;;;;;;;;;;;;;;12.85;31.46;103131.38;6165082;23;19928;-76
2021/03/01 11:44:09;;;;;;;;;;;;;;;12.89;31.03;103142.91;6165230;23;19924;-76
2021/03/01 11:46:37;;;;;;;;;;;;;;;12.88;31.33;103139.38;6159131;23;20317;-76
2021/03/01 11:49:05;;;;;;;;;;;;;;;12.92;31.35;103138.47;6166145;23;19924;-76
2021/03/01 11:51:33;;;;;;;;;;;;;;;12.96;31.43;103134.03;6166140;23;20213;-76
2021/03/01 11:54:00;;;;;;;;;;;;;;;12.95;31.64;103135.81;6165492;23;19932;-76
2021/03/01 11:56:27;;;;;;;;;;;;;;;12.83;32.71;103133.16;6167511;23;19951;-76
2021/03/01 11:58:54;;;;;;;;;;;;;;;12.65;33.59;103141.97;6161506;23;20031;-76
2021/03/01 12:01:21;;;;;;;;;;;;;;;12.70;34.09;103141.97;6160723;23;20394;-76
2021/03/01 12:03:48;;;;;;;;;;;;;;;12.72;34.16;103138.44;6167929;23;19946;-76
2021/03/01 12:06:17;;;;;;;;;;;;;;;12.89;33.60;103134.94;6167955;23;19924;-76
2021/03/01 12:08:45;;;;;;;;;;;;;;;12.95;33.20;103135.81;6169461;23;19998;-76
2021/03/01 12:11:12;;;;;;;;;;;;;;;13.03;32.63;103127.84;6169611;23;19970;-76
2021/03/01 12:13:39;;;;;;;;;;;;;;;13.12;32.32;103127.84;6163013;23;20039;-76
2021/03/01 12:16:06;;;;;;;;;;;;;;;13.17;32.09;103119.88;6135490;23;19944;-76
2021/03/01 12:18:39;;;;;;;;;;;;;;;13.16;32.08;103119.88;6166610;23;20034;-76
2021/03/01 12:21:05;;;;;;;;;;;;;;;13.22;31.83;103122.53;6138704;23;20030;-76
2021/03/01 12:23:41;;;;;;;;;;;;;;;13.28;31.64;103127.84;6169212;23;20011;-76
2021/03/01 12:26:09;;;;;;;;;;;;;;;13.38;31.31;103127.00;6164319;23;20026;-76
2021/03/01 12:28:39;;;;;;;;;;;;;;;13.47;31.29;103122.53;6160879;23;19979;-76
2021/03/01 12:31:06;;;;;;;;;;;;;;;13.44;31.26;103123.44;6164298;23;19924;-76
2021/03/01 12:33:49;;;;;;;;;;;;;;;13.44;31.25;103116.31;6166983;23;19972;-76
2021/03/01 12:36:16;;;;;;;;;;;;;;;13.49;31.15;103113.66;6164714;23;19928;-76
2021/03/01 12:38:43;;;;;;;;;;;;;;;13.54;31.08;103116.31;6167557;23;19924;-76
2021/03/01 12:41:11;;;;;;;;;;;;;;;13.55;31.03;103112.75;6161200;23;19924;-76
2021/03/01 12:43:41;;;;;;;;;;;;;;;13.55;30.92;103097.72;6162737;23;19952;-76
2021/03/01 12:46:07;;;;;;;;;;;;;;;13.66;30.83;103097.69;6166852;23;19928;-76
2021/03/01 12:48:40;;;;;;;;;;;;;;;13.72;30.73;103105.66;6166865;23;19934;-74
2021/03/01 12:51:08;;;;;;;;;;;;;;;13.74;30.86;103101.19;6163986;23;19924;-76
2021/03/01 12:53:39;;;;;;;;;;;;;;;13.79;30.84;103098.53;6161230;23;19962;-76
2021/03/01 12:56:05;;;;;;;;;;;;;;;13.60;32.44;103097.69;6156561;23;19928;-76